createdAt,value
2019-01-30T00:01:45.293Z,6.17
2019-01-30T00:04:11.520Z,8.97
2019-01-30T00:06:37.795Z,8.70
2019-01-30T00:09:45.336Z,8.40
2019-01-30T00:12:11.468Z,9.00
2019-01-30T00:14:37.699Z,9.00
2019-01-30T00:17:03.936Z,9.30
2019-01-30T00:19:30.167Z,9.90
2019-01-30T00:21:56.301Z,6.97
2019-01-30T00:24:22.522Z,5.90
2019-01-30T00:26:48.757Z,8.63
2019-01-30T00:29:14.887Z,9.13
2019-01-30T00:31:41.037Z,6.73
2019-01-30T00:34:07.254Z,7.97
2019-01-30T00:36:33.400Z,7.93
2019-01-30T00:38:59.535Z,9.43
2019-01-30T00:41:25.788Z,10.93
2019-01-30T00:43:51.912Z,11.00
2019-01-30T00:46:18.153Z,5.77
2019-01-30T00:48:44.374Z,9.03
2019-01-30T00:51:10.614Z,7.60
2019-01-30T00:53:36.754Z,9.77
2019-01-30T00:56:44.291Z,8.57
2019-01-30T00:59:10.529Z,7.07
2019-01-30T01:01:36.665Z,9.50
2019-01-30T01:04:44.196Z,6.67
2019-01-30T01:07:10.451Z,8.50
2019-01-30T01:09:36.670Z,13.53
2019-01-30T01:12:03.006Z,9.27
2019-01-30T01:14:29.133Z,7.53
2019-01-30T01:16:55.278Z,9.67
2019-01-30T01:19:21.496Z,7.47
2019-01-30T01:21:47.730Z,8.00
2019-01-30T01:24:13.951Z,8.37
2019-01-30T01:26:40.073Z,8.03
2019-01-30T01:29:06.216Z,9.80
2019-01-30T01:31:32.437Z,8.67
2019-01-30T01:33:58.672Z,8.67
2019-01-30T01:36:24.794Z,13.20
2019-01-30T01:38:51.028Z,8.37
2019-01-30T01:41:17.243Z,7.43
2019-01-30T01:43:43.380Z,13.80
2019-01-30T01:46:09.621Z,10.43
2019-01-30T01:48:35.852Z,14.63
2019-01-30T01:51:02.079Z,11.53
2019-01-30T01:53:28.316Z,9.90
2019-01-30T01:55:54.535Z,8.03
2019-01-30T01:58:20.786Z,13.27
2019-01-30T02:00:47.030Z,9.93
2019-01-30T02:03:13.264Z,11.47
2019-01-30T02:05:39.487Z,11.73
2019-01-30T02:08:05.741Z,11.20
2019-01-30T02:10:31.964Z,8.70
2019-01-30T02:12:58.216Z,11.00
2019-01-30T02:15:24.441Z,9.30
2019-01-30T02:18:31.984Z,10.50
2019-01-30T02:20:58.211Z,7.67
2019-01-30T02:23:24.447Z,9.03
2019-01-30T02:25:50.669Z,10.33
2019-01-30T02:28:16.951Z,9.60
2019-01-30T02:30:47.450Z,12.20
2019-01-30T02:33:11.292Z,11.27
2019-01-30T02:35:37.532Z,9.10
2019-01-30T02:38:03.857Z,7.53
2019-01-30T02:40:30.104Z,8.93
2019-01-30T02:42:56.328Z,9.77
2019-01-30T02:46:03.875Z,8.83
2019-01-30T02:48:30.096Z,9.40
2019-01-30T02:50:56.344Z,6.87
2019-01-30T02:53:22.560Z,7.77
2019-01-30T02:55:48.694Z,10.10
2019-01-30T02:58:14.929Z,11.70
2019-01-30T03:00:41.185Z,8.87
2019-01-30T03:03:07.398Z,7.90
2019-01-30T03:05:33.685Z,6.00
2019-01-30T03:07:59.918Z,7.27
2019-01-30T03:10:26.147Z,11.80
2019-01-30T03:12:52.365Z,7.93
2019-01-30T03:15:59.907Z,10.27
2019-01-30T03:18:26.140Z,11.33
2019-01-30T03:20:52.384Z,7.80
2019-01-30T03:23:18.516Z,10.57
2019-01-30T03:25:44.753Z,9.20
2019-01-30T03:28:10.981Z,13.67
2019-01-30T03:30:37.232Z,10.23
2019-01-30T03:33:03.565Z,11.93
2019-01-30T03:35:29.813Z,14.37
2019-01-30T03:37:56.031Z,11.00
2019-01-30T03:41:03.571Z,13.53
2019-01-30T03:46:15.611Z,13.00
2019-01-30T03:48:41.839Z,15.03
2019-01-30T03:51:08.088Z,11.90
2019-01-30T03:53:34.320Z,14.43
2019-01-30T03:56:00.467Z,15.20
2019-01-30T03:58:26.631Z,11.67
2019-01-30T04:00:52.784Z,13.57
2019-01-30T04:03:18.900Z,10.20
2019-01-30T04:05:45.119Z,13.23
2019-01-30T04:08:11.289Z,17.43
2019-01-30T04:10:37.411Z,11.27
2019-01-30T04:13:03.645Z,9.87
2019-01-30T04:15:29.882Z,11.00
2019-01-30T04:18:17.657Z,10.83
2019-01-30T04:20:43.898Z,11.23
2019-01-30T04:23:10.136Z,10.60
2019-01-30T04:25:36.363Z,12.90
2019-01-30T04:28:02.607Z,11.37
2019-01-30T04:30:28.731Z,12.13
2019-01-30T04:32:54.982Z,10.67
2019-01-30T04:35:21.208Z,11.73
2019-01-30T04:37:47.443Z,11.13
2019-01-30T04:43:27.285Z,9.37
2019-01-30T04:45:53.505Z,11.90
2019-01-30T04:48:19.638Z,10.13
2019-01-30T04:50:45.875Z,9.40
2019-01-30T04:53:12.166Z,9.33
2019-01-30T04:55:38.286Z,10.37
2019-01-30T04:58:04.519Z,9.43
2019-01-30T05:00:30.752Z,11.43
2019-01-30T05:02:57.000Z,10.87
2019-01-30T05:05:23.234Z,9.60
2019-01-30T05:07:49.502Z,8.60
2019-01-30T05:10:15.709Z,11.40
2019-01-30T05:12:41.944Z,11.80
2019-01-30T05:15:27.921Z,12.27
2019-01-30T05:17:54.069Z,10.30
2019-01-30T05:20:20.284Z,12.87
2019-01-30T05:25:40.321Z,14.47
2019-01-30T05:28:06.554Z,11.40
2019-01-30T05:30:32.986Z,11.87
2019-01-30T05:32:59.119Z,15.53
2019-01-30T05:35:25.344Z,9.07
2019-01-30T05:37:51.761Z,14.40
2019-01-30T05:40:59.326Z,10.03
2019-01-30T05:43:25.587Z,9.13
2019-01-30T05:45:51.810Z,17.03
2019-01-30T05:48:18.060Z,13.97
2019-01-30T05:50:44.304Z,16.63
2019-01-30T05:53:10.551Z,13.53
2019-01-30T05:55:36.775Z,13.90
2019-01-30T05:58:03.123Z,16.13
2019-01-30T06:03:43.004Z,13.27
2019-01-30T06:06:09.126Z,13.20
2019-01-30T06:08:35.375Z,12.27
2019-01-30T06:11:01.611Z,19.37
2019-01-30T06:13:27.874Z,15.80
2019-01-30T06:15:53.995Z,14.20
2019-01-30T06:18:20.221Z,15.73
2019-01-30T06:20:46.461Z,19.90
2019-01-30T06:23:12.689Z,17.17
2019-01-30T06:25:38.831Z,10.73
2019-01-30T06:28:05.056Z,13.20
2019-01-30T06:30:31.292Z,13.83
2019-01-30T06:32:57.611Z,17.87
2019-01-30T06:35:23.859Z,14.77
2019-01-30T06:37:50.087Z,18.30
2019-01-30T06:40:57.638Z,19.23
2019-01-30T06:43:23.868Z,10.20
2019-01-30T06:45:50.106Z,14.33
2019-01-30T06:51:03.957Z,12.53
2019-01-30T06:53:30.183Z,11.30
2019-01-30T06:55:56.419Z,10.80
2019-01-30T06:58:22.646Z,12.37
2019-01-30T07:00:48.908Z,15.03
2019-01-30T07:03:15.139Z,17.43
2019-01-30T07:05:41.379Z,15.60
2019-01-30T07:08:07.617Z,13.37
2019-01-30T07:10:33.851Z,12.70
2019-01-30T07:12:59.974Z,12.57
2019-01-30T07:15:26.113Z,9.77
2019-01-30T07:17:52.337Z,17.20
2019-01-30T07:20:18.478Z,13.43
2019-01-30T07:22:44.718Z,13.83
2019-01-30T07:25:52.262Z,11.53
2019-01-30T07:28:18.495Z,8.83
2019-01-30T07:30:44.748Z,12.80
2019-01-30T07:33:10.977Z,9.77
2019-01-30T07:35:37.223Z,13.57
2019-01-30T07:40:53.485Z,9.20
2019-01-30T07:43:19.695Z,13.53
2019-01-30T07:45:45.949Z,13.27
2019-01-30T07:48:12.164Z,13.83
2019-01-30T07:50:38.422Z,11.87
2019-01-30T07:53:04.655Z,10.47
2019-01-30T07:55:30.887Z,12.97
2019-01-30T08:01:10.560Z,11.73
2019-01-30T08:03:38.948Z,14.10
2019-01-30T08:06:04.943Z,9.70
2019-01-30T08:08:31.181Z,10.33
2019-01-30T08:10:57.426Z,13.57
2019-01-30T08:13:23.659Z,15.53
2019-01-30T08:15:49.780Z,9.23
2019-01-30T08:18:16.024Z,9.03
2019-01-30T08:20:42.259Z,15.50
2019-01-30T08:23:08.759Z,11.47
2019-01-30T08:25:35.336Z,9.67
2019-01-30T08:28:44.604Z,8.10
2019-01-30T08:31:11.147Z,9.33
2019-01-30T08:33:39.044Z,16.33
2019-01-30T08:36:05.270Z,13.40
2019-01-30T08:38:31.519Z,11.23
2019-01-30T08:40:57.756Z,9.87
2019-01-30T08:43:24.000Z,9.00
2019-01-30T08:45:50.225Z,9.77
2019-01-30T08:51:10.935Z,9.00
2019-01-30T08:53:37.175Z,11.83
2019-01-30T08:56:03.515Z,10.67
2019-01-30T08:58:29.692Z,7.97
2019-01-30T09:00:55.819Z,7.57
2019-01-30T09:03:22.081Z,8.47
2019-01-30T09:05:48.198Z,8.13
2019-01-30T09:08:14.462Z,10.97
2019-01-30T09:10:40.655Z,11.57
2019-01-30T09:13:06.891Z,12.43
2019-01-30T09:15:33.015Z,10.50
2019-01-30T09:17:59.255Z,12.30
2019-01-30T09:23:38.829Z,9.00
2019-01-30T09:26:05.157Z,11.33
2019-01-30T09:28:51.149Z,7.93
2019-01-30T09:31:17.279Z,7.67
2019-01-30T09:33:43.571Z,9.17
2019-01-30T09:36:10.005Z,10.80
2019-01-30T09:38:36.202Z,9.80
2019-01-30T09:41:02.531Z,8.13
2019-01-30T09:43:28.770Z,8.23
2019-01-30T09:45:54.997Z,9.30
2019-01-30T09:48:21.174Z,9.83
2019-01-30T09:50:47.259Z,8.97
2019-01-30T09:53:13.505Z,7.80
2019-01-30T09:55:39.627Z,10.00
2019-01-30T09:58:05.746Z,11.70
2019-01-30T10:01:13.291Z,9.60
2019-01-30T10:03:39.532Z,12.83
2019-01-30T10:06:05.854Z,9.37
2019-01-30T10:08:32.093Z,8.93
2019-01-30T10:10:58.339Z,6.90
2019-01-30T10:13:24.472Z,13.13
2019-01-30T10:15:50.714Z,7.63
2019-01-30T10:21:04.578Z,8.47
2019-01-30T10:23:30.808Z,8.90
2019-01-30T10:25:57.044Z,9.13
2019-01-30T10:28:23.267Z,13.87
2019-01-30T10:30:49.516Z,13.07
2019-01-30T10:33:15.643Z,7.77
2019-01-30T10:35:41.914Z,10.03
2019-01-30T10:38:08.099Z,6.80
2019-01-30T10:40:34.343Z,7.60
2019-01-30T10:43:00.576Z,10.73
2019-01-30T10:45:26.832Z,7.57
2019-01-30T10:47:53.062Z,8.13
2019-01-30T10:50:39.053Z,7.97
2019-01-30T10:53:05.174Z,7.30
2019-01-30T10:56:12.713Z,6.27
2019-01-30T10:58:38.984Z,6.33
2019-01-30T11:01:05.230Z,9.23
2019-01-30T11:03:31.362Z,6.40
2019-01-30T11:05:57.611Z,10.33
2019-01-30T11:08:23.859Z,6.40
2019-01-30T11:10:50.919Z,10.57
2019-01-30T11:13:18.132Z,4.87
2019-01-30T11:15:44.365Z,7.93
2019-01-30T11:18:32.146Z,8.47
2019-01-30T11:20:58.288Z,9.80
2019-01-30T11:23:24.503Z,5.80
2019-01-30T11:26:32.045Z,8.20
2019-01-30T11:28:58.172Z,10.43
2019-01-30T11:31:24.439Z,5.53
2019-01-30T11:33:50.563Z,7.13
2019-01-30T11:36:16.807Z,10.00
2019-01-30T11:38:43.033Z,6.93
2019-01-30T11:41:09.271Z,11.60
2019-01-30T11:43:35.393Z,9.17
2019-01-30T11:46:01.625Z,5.40
2019-01-30T11:48:27.864Z,6.57
2019-01-30T11:50:54.085Z,8.53
2019-01-30T11:53:20.274Z,6.10
2019-01-30T11:55:46.402Z,8.10
2019-01-30T11:58:12.632Z,8.03
2019-01-30T12:00:58.632Z,8.90
2019-01-30T12:06:32.226Z,5.93
2019-01-30T12:08:58.596Z,7.73
2019-01-30T12:11:32.298Z,6.43
2019-01-30T12:13:58.539Z,6.90
2019-01-30T12:16:27.582Z,8.53
2019-01-30T12:18:53.820Z,5.90
2019-01-30T12:21:20.040Z,8.00
2019-01-30T12:23:46.266Z,6.97
2019-01-30T12:26:12.490Z,10.57
2019-01-30T12:28:38.729Z,6.33
2019-01-30T12:31:04.955Z,8.10
2019-01-30T12:33:31.225Z,7.60
2019-01-30T12:35:57.442Z,8.33
2019-01-30T12:38:23.661Z,7.10
2019-01-30T12:40:49.908Z,6.63
2019-01-30T12:43:16.144Z,5.93
2019-01-30T12:45:42.378Z,7.50
2019-01-30T12:48:10.700Z,5.27
2019-01-30T12:50:36.843Z,9.23
2019-01-30T12:53:03.087Z,7.43
2019-01-30T12:55:29.764Z,7.63
2019-01-30T13:01:10.962Z,7.07
2019-01-30T13:03:37.211Z,7.47
2019-01-30T13:06:03.531Z,5.00
2019-01-30T13:08:29.665Z,6.90
2019-01-30T13:10:55.895Z,5.70
2019-01-30T13:13:22.140Z,4.17
2019-01-30T13:15:48.381Z,6.17
2019-01-30T13:18:18.486Z,6.20
2019-01-30T13:20:42.764Z,7.90
2019-01-30T13:23:08.997Z,5.17
2019-01-30T13:25:35.220Z,5.70
2019-01-30T13:28:01.468Z,6.67
2019-01-30T13:30:47.457Z,7.90
2019-01-30T13:33:13.696Z,4.40
2019-01-30T13:35:39.910Z,5.47
2019-01-30T13:38:06.135Z,7.00
2019-01-30T13:43:33.518Z,7.27
2019-01-30T13:46:05.508Z,4.57
2019-01-30T13:48:27.890Z,5.67
2019-01-30T13:50:54.151Z,5.10
2019-01-30T13:53:20.375Z,3.30
2019-01-30T13:55:46.589Z,4.90
2019-01-30T13:58:12.831Z,6.07
2019-01-30T14:00:39.047Z,5.80
2019-01-30T14:06:18.549Z,8.57
2019-01-30T14:08:44.681Z,5.90
2019-01-30T14:11:10.913Z,5.27
2019-01-30T14:13:37.048Z,5.73
2019-01-30T14:18:56.855Z,5.77
2019-01-30T14:21:23.104Z,4.30
2019-01-30T14:23:49.247Z,7.47
2019-01-30T14:26:15.364Z,4.97
2019-01-30T14:28:41.795Z,2.30
2019-01-30T14:31:07.959Z,4.30
2019-01-30T14:33:34.046Z,5.13
2019-01-30T14:36:00.349Z,7.27
2019-01-30T14:38:26.623Z,7.30
2019-01-30T14:40:52.884Z,5.07
2019-01-30T14:43:19.077Z,7.40
2019-01-30T14:45:45.348Z,4.97
2019-01-30T14:48:11.658Z,5.53
2019-01-30T14:50:37.897Z,2.43
2019-01-30T14:53:04.079Z,5.97
2019-01-30T14:58:24.908Z,3.63
2019-01-30T15:00:52.073Z,5.37
2019-01-30T15:03:18.170Z,3.20
2019-01-30T15:05:44.442Z,4.67
2019-01-30T15:08:10.574Z,5.87
2019-01-30T15:10:36.782Z,3.27
2019-01-30T15:13:44.298Z,6.27
2019-01-30T15:16:10.446Z,2.60
2019-01-30T15:18:36.705Z,3.73
2019-01-30T15:21:44.203Z,7.37
2019-01-30T15:24:10.423Z,5.77
2019-01-30T15:26:36.702Z,5.50
2019-01-30T15:32:10.387Z,2.03
2019-01-30T15:34:36.608Z,5.73
2019-01-30T15:37:02.838Z,4.53
2019-01-30T15:39:29.063Z,5.10
2019-01-30T15:41:55.298Z,4.03
2019-01-30T15:44:21.553Z,2.53
2019-01-30T15:46:47.684Z,7.60
2019-01-30T15:49:13.907Z,5.67
2019-01-30T15:51:40.123Z,4.93
2019-01-30T15:54:06.355Z,4.27
2019-01-30T15:56:32.578Z,5.33
2019-01-30T15:58:58.823Z,5.03
2019-01-30T16:01:25.061Z,5.87
2019-01-30T16:03:51.291Z,5.90
2019-01-30T16:06:17.517Z,4.63
2019-01-30T16:08:43.781Z,1.77
2019-01-30T16:11:09.898Z,2.93
2019-01-30T16:13:36.030Z,5.90
2019-01-30T16:19:16.361Z,5.40
2019-01-30T16:21:42.578Z,6.57
2019-01-30T16:24:08.834Z,4.23
2019-01-30T16:26:34.961Z,7.20
2019-01-30T16:29:01.106Z,3.93
2019-01-30T16:31:27.486Z,8.73
2019-01-30T16:33:53.781Z,3.20
2019-01-30T16:36:19.904Z,4.53
2019-01-30T16:38:46.142Z,3.87
2019-01-30T16:41:12.368Z,5.33
2019-01-30T16:43:38.503Z,5.90
2019-01-30T16:46:46.045Z,7.37
2019-01-30T16:49:12.340Z,3.13
2019-01-30T16:51:38.461Z,3.60
2019-01-30T16:54:04.591Z,4.87
2019-01-30T16:56:30.835Z,4.30
2019-01-30T16:58:56.966Z,2.63
2019-01-30T17:01:23.190Z,3.37
2019-01-30T17:03:49.420Z,5.07
2019-01-30T17:06:15.541Z,1.80
2019-01-30T17:08:41.767Z,3.10
2019-01-30T17:11:08.009Z,4.67
2019-01-30T17:13:34.219Z,5.40
2019-01-30T17:16:00.352Z,3.97
2019-01-30T17:18:26.569Z,1.77
2019-01-30T17:20:52.701Z,2.27
2019-01-30T17:23:18.952Z,2.30
2019-01-30T17:25:45.183Z,2.63
2019-01-30T17:28:11.303Z,3.67
2019-01-30T17:30:58.503Z,0.97
2019-01-30T17:33:24.754Z,1.73
2019-01-30T17:35:50.932Z,2.90
2019-01-30T17:38:17.057Z,3.83
2019-01-30T17:41:24.588Z,1.87
2019-01-30T17:43:50.725Z,2.97
2019-01-30T17:46:16.963Z,4.20
2019-01-30T17:48:43.196Z,2.03
2019-01-30T17:51:09.434Z,2.53
2019-01-30T17:53:35.659Z,4.27
2019-01-30T17:56:01.916Z,4.53
2019-01-30T17:58:28.138Z,4.33
2019-01-30T18:03:28.171Z,1.13
2019-01-30T18:05:54.396Z,2.63
2019-01-30T18:11:08.240Z,1.10
2019-01-30T18:13:34.462Z,4.30
2019-01-30T18:16:00.799Z,2.90
2019-01-30T18:18:27.024Z,4.10
2019-01-30T18:20:53.270Z,2.00
2019-01-30T18:23:19.491Z,4.50
2019-01-30T18:25:45.731Z,4.40
2019-01-30T18:28:11.972Z,2.70
2019-01-30T18:30:38.214Z,2.37
2019-01-30T18:33:04.444Z,1.47
2019-01-30T18:35:30.559Z,2.03
2019-01-30T18:37:56.803Z,2.37
2019-01-30T18:40:42.781Z,1.60
2019-01-30T18:43:09.026Z,2.30
2019-01-30T18:45:35.272Z,4.70
2019-01-30T18:48:01.511Z,2.27
2019-01-30T18:51:09.040Z,1.23
2019-01-30T18:53:35.182Z,2.13
2019-01-30T18:56:01.408Z,2.30
2019-01-30T18:58:27.545Z,2.83
2019-01-30T19:00:53.774Z,1.23
2019-01-30T19:03:20.063Z,5.20
2019-01-30T19:05:46.298Z,1.30
2019-01-30T19:08:12.553Z,0.47
2019-01-30T19:10:38.790Z,3.47
2019-01-30T19:13:05.041Z,4.10
2019-01-30T19:15:31.215Z,2.07
2019-01-30T19:17:57.407Z,3.60
2019-01-30T19:20:44.195Z,2.07
2019-01-30T19:23:10.488Z,2.17
2019-01-30T19:25:36.716Z,2.60
2019-01-30T19:28:44.260Z,4.13
2019-01-30T19:31:10.397Z,1.20
2019-01-30T19:33:36.647Z,0.97
2019-01-30T19:36:02.916Z,1.50
2019-01-30T19:38:29.171Z,1.20
2019-01-30T19:40:55.323Z,0.10
2019-01-30T19:43:21.698Z,0.43
2019-01-30T19:45:47.920Z,1.70
2019-01-30T19:48:14.040Z,2.83
2019-01-30T19:50:40.180Z,1.50
2019-01-30T19:53:06.603Z,13.77
2019-01-30T19:55:32.789Z,2.73
2019-01-30T19:57:59.019Z,0.73
2019-01-30T20:01:06.560Z,1.13
2019-01-30T20:03:32.804Z,1.37
2019-01-30T20:05:59.025Z,2.67
2019-01-30T20:08:25.270Z,0.40
2019-01-30T20:10:51.533Z,0.70
2019-01-30T20:13:17.670Z,1.57
2019-01-30T20:15:43.897Z,2.87
2019-01-30T20:18:10.121Z,1.87
2019-01-30T20:20:36.453Z,0.30
2019-01-30T20:26:16.729Z,1.60
2019-01-30T20:28:42.971Z,1.70
2019-01-30T20:31:09.206Z,1.67
2019-01-30T20:33:35.423Z,1.03
2019-01-30T20:36:01.662Z,2.40
2019-01-30T20:38:27.775Z,3.03
2019-01-30T20:40:53.920Z,1.53
2019-01-30T20:43:20.142Z,2.90
2019-01-30T20:45:46.408Z,0.80
2019-01-30T20:48:12.627Z,2.23
2019-01-30T20:50:38.769Z,0.70
2019-01-30T20:56:12.247Z,0.30
2019-01-30T20:58:38.367Z,1.87
2019-01-30T21:03:58.555Z,2.10
2019-01-30T21:06:24.698Z,2.03
2019-01-30T21:08:50.841Z,4.57
2019-01-30T21:11:16.968Z,1.67
2019-01-30T21:13:43.187Z,2.17
2019-01-30T21:16:09.436Z,0.90
2019-01-30T21:18:35.655Z,4.20
2019-01-30T21:21:01.890Z,2.60
2019-01-30T21:23:28.111Z,0.33
2019-01-30T21:25:54.351Z,1.63
2019-01-30T21:28:20.575Z,0.30
2019-01-30T21:30:46.808Z,1.40
2019-01-30T21:33:13.051Z,2.33
2019-01-30T21:35:39.286Z,2.97
2019-01-30T21:38:05.532Z,0.50
2019-01-30T21:40:31.741Z,1.30
2019-01-30T21:42:57.871Z,1.33
2019-01-30T21:46:05.425Z,2.43
2019-01-30T21:48:31.657Z,1.77
2019-01-30T21:50:57.919Z,1.27
2019-01-30T21:53:24.026Z,0.60
2019-01-30T21:55:50.147Z,0.60
2019-01-30T21:58:16.380Z,1.50
2019-01-30T22:00:42.598Z,0.63
2019-01-30T22:03:08.726Z,0.50
2019-01-30T22:05:34.951Z,0.83
2019-01-30T22:08:01.492Z,2.10
2019-01-30T22:10:29.332Z,0.67
2019-01-30T22:12:55.566Z,5.63
2019-01-30T22:15:21.789Z,1.33
2019-01-30T22:17:47.923Z,1.40
2019-01-30T22:20:55.454Z,0.17
2019-01-30T22:23:21.697Z,1.23
2019-01-30T22:25:47.942Z,0.13
2019-01-30T22:28:14.059Z,1.20
2019-01-30T22:30:40.300Z,0.83
2019-01-30T22:33:06.445Z,0.67
2019-01-30T22:35:32.669Z,1.63
2019-01-30T22:37:58.800Z,0.90
2019-01-30T22:40:24.923Z,0.40
2019-01-30T22:42:51.158Z,0.70
2019-01-30T22:48:31.080Z,2.27
2019-01-30T22:50:57.197Z,0.63
2019-01-30T22:53:23.356Z,1.10
2019-01-30T22:55:49.601Z,2.17
2019-01-30T22:58:15.840Z,1.10
2019-01-30T23:01:23.374Z,4.43
2019-01-30T23:04:29.141Z,0.37
2019-01-30T23:13:28.351Z,2.40
2019-01-30T23:22:48.391Z,2.87
2019-01-30T23:25:54.116Z,2.33
2019-01-30T23:32:05.925Z,1.90
2019-01-30T23:35:11.644Z,0.73
2019-01-30T23:38:17.404Z,2.00
2019-01-30T23:47:37.196Z,4.20
